Terminal Aerodrome Forecast
Issued by NWS Raleigh/Durham, NC

Home | Current Version | Previous Version | Text Only | Print | Product List | Glossary On
Versions: 1 2 3 4 5 6 7 8 9 10 11 12 13 14 15 16 17 18 19 20 21 22 23 24 25 26 27 28 29 30 31 32 33 34 35 36 37 38 39 40 41 42 43 44 45 46 47 48 49
000
FTUS42 KRAH 051332 AAA
TAFRDU
TAF AMD
KRDU 051332Z 0514/0612 03012G20KT 4SM -RA OVC006 WS012/23035KT
      TEMPO 0514/0517 1 1/2SM RA BR OVC004
     FM051800 03010G18KT 1 1/2SM -RA BR OVC005
     FM052300 03010KT 1SM -FZRA BR OVC003=

USA.gov is the U.S. government's official web portal to all federal, state and local government web resources and services.